Big Trout Lake Airport
CYTL : now visible

Airfield :











YOU CAN JOIN US ON...

 
LOGIN :

Register | Disclaimer

   EN    FR    IT 

 









Legend :    VFR   Marginal VFR   IFR   Intensive IFR   Very Intensive IFR
Visi :
Ceiling :
>= 8 km
>= 3000ft
5 to 8 km
1000 to 3000 ft
1500m to 5 km
500 to 1000 ft
800 to 1500m
200 to 500 ft
< 800m
< 200 ft
Symbols :   Thunderstorms  Fog  Heavy snow  Heavy precipitations  Wind > 20 kt






- Airport Elevation : 729 ft
- IATA code : YTL


CYTL - Big Trout Lake

CURRENT METAR :
  • 210503Z AUTO 02007KT 8SM -SN BKN026 BKN070 M20/M22 A2930 RMK SLP951

EXPIRED METARs :
  • 210456Z AUTO 02007KT 7SM -SN BKN024 M20/M22 A2930 RMK SLP950
  • 210405Z AUTO 03009G15KT 360V070 3SM -SN OVC042 M19/M22 A2927 RMK SLP941
  • 210358Z AUTO 04007G15KT 010V070 2 1/2SM -SN OVC042 M19/M22 A2927 RMK SLP940
  • 210325Z AUTO 03007G15KT 360V070 5SM -SN OVC046 M19/M22 A2926 RMK SLP935
  • 210311Z AUTO 03010G15KT 6SM -SN OVC042 M19/M22 A2925 RMK SLP933
  • 210258Z AUTO 04009KT 360V080 5SM -SN OVC034 M19/M22 A2925 RMK SLP932
  • 210248Z AUTO 03008KT 6SM -SN OVC032 M19/M22 A2925 RMK SLP932
  • 210234Z AUTO 04007KT 360V080 3SM -SN OVC028 M19/M21 A2924 RMK SLP929
  • 210219Z AUTO 04007KT 360V080 2SM -SN OVC024 M19/M21 A2924 RMK SLP926

TAF AMD TAF CYTL
Valid from the 21 at 03:00 until the 21 at 14:00 UTC


210321Z 2103/2114 03012KT 6SM -SN OVC030
TEMPO 2103/2114 2SM -SN OVC015
BECMG 2108/2110 36012G22KT RMK FCST BASED ON AUTO OBS. NXT FCST BY 210800Z
CZWG FIR / North America



MET'MAP, your aeronautical weather chart ! - Copyright ORBIFLY December 2007 - Disclaimer

ORBIFLY MET'MAP TEAM :

Programming & Development : Alexandra Zaïnal
Concept & original design : Baudouin d'Aumeries
Assistance for programming : Marc-Olivier Méhu
Technical & hardware support : Manuel Goepfert

Contact : metmap@orbifly.com




SOURCES & CREDITS :

   NOAA       Earth
Advisory